Time;durP1;ratioP1;P1;durP2;ratioP2;P2;SDS_P1;SDS_P2;PMS_P1;PMS_P2;Temp;Humidity;BMP_temperature;BMP_pressure;BME280_temperature;BME280_humidity;BME280_pressure;Samples;Min_cycle;Max_cycle;Signal;HPM_P1;HPM_P2
2022/12/27 00:01:47;;;;;;;3.60;1.20;;;8.40;75.00;;;;;;5038300;28;20482;-70
2022/12/27 00:04:16;;;;;;;3.27;0.93;;;8.40;74.90;;;;;;5040244;28;20258;-70
2022/12/27 00:06:45;;;;;;;4.80;1.33;;;8.40;74.80;;;;;;5040271;28;20490;-70
2022/12/27 00:09:13;;;;;;;5.25;1.30;;;8.40;74.80;;;;;;5037894;28;20463;-70
2022/12/27 00:11:41;;;;;;;5.95;1.40;;;8.40;74.60;;;;;;5039755;28;20220;-71
2022/12/27 00:14:10;;;;;;;4.25;1.52;;;8.40;74.60;;;;;;5039277;28;20670;-70
2022/12/27 00:16:39;;;;;;;3.85;1.10;;;8.40;74.60;;;;;;5039189;28;20238;-70
2022/12/27 00:19:07;;;;;;;8.70;1.58;;;8.40;74.50;;;;;;5040948;28;20217;-70
2022/12/27 00:21:35;;;;;;;3.50;1.10;;;8.40;74.00;;;;;;5040709;28;20257;-70
2022/12/27 00:24:05;;;;;;;4.63;1.35;;;8.30;73.40;;;;;;5042321;28;20192;-71
2022/12/27 00:26:34;;;;;;;4.68;1.30;;;8.20;74.00;;;;;;5041439;28;20211;-70
2022/12/27 00:29:02;;;;;;;6.27;1.53;;;8.20;74.00;;;;;;5041702;28;20213;-71
2022/12/27 00:31:32;;;;;;;4.87;1.50;;;8.20;73.90;;;;;;5041014;28;20479;-70
2022/12/27 00:34:06;;;;;;;4.40;1.20;;;8.20;73.80;;;;;;5039360;28;20495;-71
2022/12/27 00:36:35;;;;;;;3.97;1.27;;;8.20;73.80;;;;;;5040104;28;20215;-70
2022/12/27 00:39:03;;;;;;;3.60;1.10;;;8.20;73.70;;;;;;5039081;28;20215;-70
2022/12/27 00:41:32;;;;;;;5.35;1.23;;;8.20;73.60;;;;;;5040944;28;21022;-70
2022/12/27 00:44:00;;;;;;;5.28;1.35;;;8.10;73.50;;;;;;5039306;28;20199;-70
2022/12/27 00:46:28;;;;;;;4.15;1.58;;;8.10;73.50;;;;;;5039844;28;20290;-70
2022/12/27 00:48:57;;;;;;;5.20;1.23;;;8.10;73.40;;;;;;5040055;28;20225;-70
2022/12/27 00:51:26;;;;;;;3.57;1.00;;;8.10;73.30;;;;;;5040501;28;20224;-70
2022/12/27 00:53:54;;;;;;;4.55;1.02;;;8.10;73.10;;;;;;5040303;28;20481;-70
2022/12/27 00:56:24;;;;;;;4.38;1.38;;;8.10;72.80;;;;;;5039996;28;20295;-70
2022/12/27 00:58:55;;;;;;;3.70;1.23;;;8.00;72.90;;;;;;5040248;28;20215;-70
2022/12/27 01:01:24;;;;;;;6.53;1.70;;;8.00;73.00;;;;;;5040374;28;20316;-70
2022/12/27 01:03:53;;;;;;;3.70;1.35;;;8.00;72.90;;;;;;5040194;28;20204;-70
2022/12/27 01:06:24;;;;;;;3.42;0.93;;;8.00;72.80;;;;;;5037871;28;20292;-70
2022/12/27 01:08:52;;;;;;;4.10;1.23;;;8.00;72.80;;;;;;5039677;28;20211;-70
2022/12/27 01:11:20;;;;;;;8.13;1.40;;;8.00;72.70;;;;;;5040495;28;20224;-70
2022/12/27 01:13:48;;;;;;;4.95;1.25;;;8.00;72.70;;;;;;5040273;28;20228;-71
2022/12/27 01:16:20;;;;;;;7.50;1.45;;;7.90;72.40;;;;;;5054035;28;20707;-70
2022/12/27 01:18:48;;;;;;;5.50;1.40;;;7.90;72.50;;;;;;5039083;28;20713;-69
2022/12/27 01:21:19;;;;;;;11.20;1.40;;;7.90;72.50;;;;;;5039731;28;20474;-71
2022/12/27 01:23:47;;;;;;;6.60;1.83;;;7.90;72.40;;;;;;5038906;28;20204;-70
2022/12/27 01:26:19;;;;;;;4.07;1.40;;;7.90;72.40;;;;;;5037341;28;20555;-70
2022/12/27 01:28:48;;;;;;;5.40;1.50;;;7.90;72.40;;;;;;5037262;28;20675;-70
2022/12/27 01:31:19;;;;;;;5.85;1.60;;;7.90;72.30;;;;;;5040101;28;20247;-70
2022/12/27 01:33:47;;;;;;;7.40;1.50;;;7.80;72.20;;;;;;5038666;28;20200;-70
2022/12/27 01:36:17;;;;;;;4.10;1.42;;;7.80;72.20;;;;;;5039335;28;20204;-71
2022/12/27 01:38:47;;;;;;;4.72;1.45;;;7.80;72.20;;;;;;5039702;28;20242;-70
2022/12/27 01:44:49;;;;;;;3.55;1.48;;;7.80;72.20;;;;;;5035635;28;20192;-70
2022/12/27 01:47:24;;;;;;;6.07;2.00;;;7.80;72.10;;;;;;5028371;28;20242;-70
2022/12/27 01:49:59;;;;;;;5.43;1.40;;;7.80;72.10;;;;;;5039898;28;20803;-70
2022/12/27 01:52:31;;;;;;;4.10;1.70;;;7.80;72.10;;;;;;5037302;28;20236;-70
2022/12/27 01:55:10;;;;;;;6.88;1.42;;;7.80;72.10;;;;;;5039501;28;20939;-70
2022/12/27 01:57:39;;;;;;;3.85;1.27;;;7.80;72.20;;;;;;5037653;28;20216;-70
2022/12/27 02:00:08;;;;;;;6.60;1.95;;;7.90;72.20;;;;;;5040991;28;20209;-70
2022/12/27 02:02:38;;;;;;;4.03;1.35;;;7.90;72.10;;;;;;5053195;28;20228;-70
2022/12/27 02:05:09;;;;;;;9.60;1.58;;;7.90;72.10;;;;;;5037591;28;20208;-70
2022/12/27 02:07:50;;;;;;;6.20;1.85;;;7.90;71.90;;;;;;5039682;28;20958;-70
2022/12/27 02:10:19;;;;;;;4.57;1.45;;;7.90;71.80;;;;;;5038667;28;20201;-70
2022/12/27 02:12:47;;;;;;;4.10;1.30;;;7.80;71.80;;;;;;5039804;28;20221;-70
2022/12/27 02:15:15;;;;;;;4.35;1.45;;;7.80;71.70;;;;;;5039261;28;20274;-70
2022/12/27 02:17:44;;;;;;;3.72;1.30;;;7.70;71.80;;;;;;5040640;28;20209;-70
2022/12/27 02:20:15;;;;;;;4.00;1.45;;;7.70;71.70;;;;;;5035873;28;20208;-70
2022/12/27 02:26:41;;;;;;;7.03;1.60;;;7.70;71.80;;;;;;4995939;28;20271;-70
2022/12/27 02:29:24;;;;;;;5.00;1.63;;;7.70;71.70;;;;;;4997371;28;20216;-70
2022/12/27 02:31:59;;;;;;;3.88;1.50;;;7.70;71.70;;;;;;5024745;28;20236;-70
2022/12/27 02:34:32;;;;;;;4.10;1.50;;;7.70;71.70;;;;;;5040004;28;20285;-69
2022/12/27 02:37:05;;;;;;;4.38;1.35;;;7.60;71.70;;;;;;5039954;28;20197;-70
2022/12/27 02:39:39;;;;;;;3.65;1.20;;;7.60;71.70;;;;;;5043383;28;20208;-70
2022/12/27 02:53:39;;;;;;;4.53;1.25;;;7.50;71.50;;;;;;5043818;28;20247;-70
2022/12/27 02:59:23;;;;;;;4.90;1.45;;;7.40;71.70;;;;;;5043469;28;20200;-71
2022/12/27 03:05:06;;;;;;;4.13;1.38;;;7.40;71.80;;;;;;5061502;28;20678;-70
2022/12/27 03:07:41;;;;;;;6.43;1.35;;;7.40;71.80;;;;;;5045082;28;20212;-70
2022/12/27 03:16:24;;;;;;;4.40;1.65;;;7.40;71.90;;;;;;5048431;28;20342;-72
2022/12/27 03:19:03;;;;;;;7.13;1.60;;;7.30;71.80;;;;;;5046582;28;20205;-72
2022/12/27 03:27:10;;;;;;;4.32;1.35;;;7.20;71.70;;;;;;5012118;28;20321;-70
2022/12/27 03:35:17;;;;;;;6.00;1.63;;;7.10;71.80;;;;;;5044064;28;20224;-72
2022/12/27 03:38:03;;;;;;;5.65;1.67;;;7.10;71.90;;;;;;5043278;28;20203;-69
2022/12/27 03:43:29;;;;;;;6.00;1.52;;;7.00;72.00;;;;;;5046917;28;20212;-70
2022/12/27 03:48:58;;;;;;;7.82;1.52;;;7.00;72.10;;;;;;5070780;28;20209;-70
2022/12/27 03:51:32;;;;;;;4.97;1.40;;;7.00;72.00;;;;;;5052878;28;20220;-71
2022/12/27 03:54:06;;;;;;;5.20;1.63;;;7.00;72.20;;;;;;5054072;28;20304;-71
2022/12/27 03:56:34;;;;;;;8.75;1.60;;;7.00;72.20;;;;;;5051670;28;20564;-70
2022/12/27 03:59:04;;;;;;;5.65;2.00;;;7.00;72.20;;;;;;5052567;28;20200;-70
2022/12/27 04:01:32;;;;;;;7.55;1.35;;;7.00;72.30;;;;;;5051793;28;20228;-70
2022/12/27 04:04:00;;;;;;;5.07;1.80;;;7.00;72.20;;;;;;5052464;28;20208;-71
2022/12/27 04:06:30;;;;;;;5.03;1.75;;;6.90;72.20;;;;;;5052562;28;20192;-70
2022/12/27 04:36:37;;;;;;;5.28;1.67;;;6.60;72.30;;;;;;5042605;28;20216;-69
2022/12/27 04:39:06;;;;;;;6.28;1.80;;;6.50;72.30;;;;;;5042530;28;20493;-71
2022/12/27 04:55:30;;;;;;;12.18;1.80;;;6.40;72.80;;;;;;5012322;28;20238;-72
2022/12/27 04:57:58;;;;;;;7.57;1.70;;;6.50;72.80;;;;;;5039776;28;20204;-71
2022/12/27 05:03:18;;;;;;;5.82;1.33;;;6.50;72.90;;;;;;5043398;28;20204;-72
2022/12/27 05:05:48;;;;;;;8.70;1.65;;;6.50;72.90;;;;;;5038749;28;20205;-72
2022/12/27 05:13:59;;;;;;;8.77;1.73;;;6.60;73.10;;;;;;5039975;28;20262;-71
2022/12/27 05:16:28;;;;;;;6.15;1.60;;;6.60;73.20;;;;;;5040066;28;20719;-71
2022/12/27 05:18:56;;;;;;;5.65;1.75;;;6.60;73.20;;;;;;5040105;28;20212;-71
2022/12/27 05:21:24;;;;;;;7.40;2.15;;;6.60;73.10;;;;;;5040569;28;20982;-71
2022/12/27 05:26:39;;;;;;;8.18;2.22;;;6.60;73.30;;;;;;5041452;28;21010;-71
2022/12/27 05:29:08;;;;;;;5.28;1.40;;;6.70;73.40;;;;;;5041128;28;20264;-70
2022/12/27 05:31:36;;;;;;;7.40;1.95;;;6.70;73.50;;;;;;5054011;28;20228;-71
2022/12/27 05:34:05;;;;;;;5.80;2.03;;;6.70;73.40;;;;;;5042367;28;20545;-71
2022/12/27 05:36:33;;;;;;;5.75;1.45;;;6.70;73.50;;;;;;5041216;28;20213;-71
2022/12/27 05:39:02;;;;;;;5.00;1.50;;;6.70;73.50;;;;;;5041627;28;20270;-71
2022/12/27 05:41:29;;;;;;;5.65;1.70;;;6.70;73.50;;;;;;5041978;28;20259;-71
2022/12/27 05:43:59;;;;;;;4.40;1.65;;;6.80;73.50;;;;;;5041594;28;20216;-71
2022/12/27 05:46:34;;;;;;;6.60;1.67;;;6.80;73.50;;;;;;5040981;28;20209;-71
2022/12/27 05:49:02;;;;;;;6.35;1.63;;;6.70;73.50;;;;;;5057250;28;20937;-72
2022/12/27 05:51:30;;;;;;;7.88;2.00;;;6.70;73.40;;;;;;5041250;28;20231;-70
2022/12/27 05:53:58;;;;;;;5.05;1.58;;;6.70;73.50;;;;;;5042016;28;20204;-71
2022/12/27 05:56:26;;;;;;;8.55;1.70;;;6.70;73.60;;;;;;5041470;28;20232;-72
2022/12/27 05:58:54;;;;;;;7.55;2.08;;;6.70;73.70;;;;;;5040555;28;20208;-71
2022/12/27 06:01:23;;;;;;;5.22;1.80;;;6.70;73.70;;;;;;5056225;28;20228;-71
2022/12/27 06:03:51;;;;;;;8.75;1.98;;;6.70;73.70;;;;;;5037903;28;20933;-70
2022/12/27 06:06:19;;;;;;;6.50;1.77;;;6.70;73.80;;;;;;5040639;28;20318;-71
2022/12/27 06:08:47;;;;;;;10.10;1.88;;;6.60;73.90;;;;;;5036211;28;20763;-70
2022/12/27 06:11:17;;;;;;;5.40;2.10;;;6.70;73.90;;;;;;5042027;28;20228;-71
2022/12/27 06:13:50;;;;;;;6.38;2.38;;;6.70;74.00;;;;;;5044069;28;20674;-69
2022/12/27 06:16:19;;;;;;;8.23;2.45;;;6.70;74.10;;;;;;5042471;28;20218;-71
2022/12/27 06:18:49;;;;;;;10.50;1.70;;;6.70;73.90;;;;;;5042893;28;20200;-70
2022/12/27 06:21:19;;;;;;;5.05;2.03;;;6.70;74.00;;;;;;5043014;28;20270;-70
2022/12/27 06:23:48;;;;;;;6.70;2.00;;;6.60;74.10;;;;;;5043010;28;20204;-69
2022/12/27 06:26:17;;;;;;;5.70;2.03;;;6.70;74.30;;;;;;5042858;28;20207;-69
2022/12/27 06:28:46;;;;;;;6.32;1.92;;;6.70;74.30;;;;;;5043880;28;20201;-71
2022/12/27 06:31:14;;;;;;;5.15;1.73;;;6.70;74.30;;;;;;5042818;28;20236;-71
2022/12/27 06:33:42;;;;;;;6.45;1.80;;;6.70;74.30;;;;;;5044923;28;20264;-71
2022/12/27 06:36:13;;;;;;;7.05;2.10;;;6.80;74.40;;;;;;5043521;28;20204;-72
2022/12/27 06:38:41;;;;;;;5.90;2.00;;;6.80;74.40;;;;;;5060233;28;20224;-70
2022/12/27 06:41:11;;;;;;;9.55;2.28;;;6.70;74.30;;;;;;5049693;28;20225;-70
2022/12/27 06:43:40;;;;;;;9.48;2.00;;;6.70;74.50;;;;;;5044602;28;20208;-70
2022/12/27 06:46:10;;;;;;;10.57;2.20;;;6.70;74.50;;;;;;5036330;28;20216;-70
2022/12/27 06:48:45;;;;;;;6.82;2.55;;;6.80;74.50;;;;;;5042073;28;20200;-70
2022/12/27 06:51:17;;;;;;;5.18;2.10;;;6.70;74.50;;;;;;5044566;28;20232;-69
2022/12/27 06:53:46;;;;;;;8.35;1.98;;;6.70;74.80;;;;;;5043484;28;20211;-69
2022/12/27 06:56:17;;;;;;;7.80;2.58;;;6.80;74.80;;;;;;5044968;28;20217;-71
2022/12/27 06:58:46;;;;;;;5.72;2.10;;;6.70;74.80;;;;;;5043752;28;20204;-69
2022/12/27 07:01:16;;;;;;;7.18;1.83;;;6.70;74.80;;;;;;5042577;28;20235;-69
2022/12/27 07:03:49;;;;;;;9.93;2.38;;;6.70;74.90;;;;;;5060142;28;20204;-70
2022/12/27 07:06:19;;;;;;;4.93;1.83;;;6.70;74.90;;;;;;5044229;28;20208;-69
2022/12/27 07:08:47;;;;;;;13.90;3.05;;;6.60;74.90;;;;;;5042022;28;20200;-69
2022/12/27 07:11:16;;;;;;;5.05;1.85;;;6.60;75.10;;;;;;5042799;28;20305;-69
2022/12/27 07:13:46;;;;;;;11.52;2.28;;;6.70;75.10;;;;;;5044323;28;20209;-69
2022/12/27 07:16:16;;;;;;;6.95;2.55;;;6.70;75.10;;;;;;5043926;28;20560;-69
2022/12/27 07:18:45;;;;;;;7.70;2.60;;;6.70;75.10;;;;;;5043728;28;20279;-70
2022/12/27 07:21:20;;;;;;;12.05;3.30;;;6.60;75.20;;;;;;5044033;28;20224;-70
2022/12/27 07:23:49;;;;;;;8.20;3.13;;;6.60;75.30;;;;;;5042672;28;20196;-70
2022/12/27 07:26:18;;;;;;;6.40;2.63;;;6.60;75.30;;;;;;5042786;28;20900;-71
2022/12/27 07:28:47;;;;;;;9.27;3.03;;;6.60;75.40;;;;;;5044759;28;20215;-69
2022/12/27 07:31:17;;;;;;;9.20;5.20;;;6.60;75.50;;;;;;5045600;28;20256;-70
2022/12/27 07:33:45;;;;;;;17.35;9.43;;;6.60;75.50;;;;;;5042511;28;20215;-70
2022/12/27 07:36:16;;;;;;;8.95;3.80;;;6.60;75.50;;;;;;5042872;28;20425;-72
2022/12/27 07:38:45;;;;;;;7.03;2.75;;;6.60;75.60;;;;;;5043844;28;20225;-71
2022/12/27 07:41:14;;;;;;;5.15;2.80;;;6.60;75.60;;;;;;5043566;28;20290;-69
2022/12/27 07:43:44;;;;;;;8.70;3.92;;;6.60;75.60;;;;;;5044039;28;20247;-70
2022/12/27 07:46:14;;;;;;;6.63;3.35;;;6.60;75.70;;;;;;5043910;28;20216;-71
2022/12/27 07:48:42;;;;;;;6.80;3.20;;;6.60;75.70;;;;;;5042519;28;20233;-71
2022/12/27 07:51:11;;;;;;;8.50;3.75;;;6.60;75.70;;;;;;5042595;28;20286;-70
2022/12/27 07:53:39;;;;;;;11.85;3.60;;;6.60;75.80;;;;;;5043538;28;20216;-70
2022/12/27 07:56:10;;;;;;;7.32;3.30;;;6.60;75.90;;;;;;5043700;28;20217;-70
2022/12/27 07:58:40;;;;;;;7.85;3.75;;;6.60;76.00;;;;;;5040686;28;20208;-70
2022/12/27 08:01:10;;;;;;;11.05;4.18;;;6.60;76.00;;;;;;5041085;28;20228;-70
2022/12/27 08:03:40;;;;;;;11.68;4.43;;;6.60;76.20;;;;;;5042416;28;20740;-70
2022/12/27 08:06:18;;;;;;;8.25;3.55;;;6.60;76.20;;;;;;5043984;28;20237;-70
2022/12/27 08:08:46;;;;;;;10.32;4.22;;;6.70;76.20;;;;;;5041147;28;20270;-70
2022/12/27 08:11:15;;;;;;;7.38;4.20;;;6.70;76.40;;;;;;5043178;28;20240;-69
2022/12/27 08:13:44;;;;;;;8.20;4.35;;;6.70;76.20;;;;;;5043442;28;20849;-70
2022/12/27 08:16:17;;;;;;;11.65;4.47;;;6.70;76.20;;;;;;5043690;28;20208;-70
2022/12/27 08:18:45;;;;;;;6.85;3.80;;;6.70;76.30;;;;;;5042831;28;20208;-70
2022/12/27 08:21:13;;;;;;;10.52;4.88;;;6.70;76.30;;;;;;5043152;28;20237;-70
2022/12/27 08:23:41;;;;;;;9.10;4.28;;;6.60;76.40;;;;;;5043472;28;20205;-70
2022/12/27 08:26:10;;;;;;;9.38;3.80;;;6.60;76.60;;;;;;5056710;28;20630;-70
2022/12/27 08:28:39;;;;;;;9.77;4.70;;;6.70;76.70;;;;;;5042537;28;20193;-71
2022/12/27 08:31:08;;;;;;;10.20;3.65;;;6.70;76.70;;;;;;5041721;28;20240;-70
2022/12/27 08:33:36;;;;;;;9.48;3.80;;;6.70;76.80;;;;;;5043507;28;20212;-70
2022/12/27 08:36:06;;;;;;;11.02;4.40;;;6.80;76.80;;;;;;5041757;28;20209;-70
2022/12/27 08:38:54;;;;;;;8.18;3.45;;;6.80;76.80;;;;;;5042598;28;20322;-70
2022/12/27 08:41:23;;;;;;;6.50;3.85;;;6.80;77.00;;;;;;5041754;28;20706;-70
2022/12/27 08:43:52;;;;;;;6.97;3.90;;;6.90;77.00;;;;;;5041297;28;20828;-69
2022/12/27 08:46:20;;;;;;;10.90;3.85;;;6.90;77.00;;;;;;5043018;28;20213;-70
2022/12/27 08:48:49;;;;;;;7.35;3.55;;;6.90;76.90;;;;;;5042522;28;20219;-71
2022/12/27 08:51:17;;;;;;;7.90;3.63;;;6.90;77.00;;;;;;5040573;28;20757;-69
2022/12/27 08:53:59;;;;;;;12.93;4.45;;;6.90;77.10;;;;;;5045118;28;20205;-72
2022/12/27 08:56:27;;;;;;;9.55;3.65;;;6.90;77.00;;;;;;5042936;28;20254;-71
2022/12/27 08:58:56;;;;;;;6.85;3.30;;;6.90;77.10;;;;;;5042597;28;20236;-70
2022/12/27 09:01:25;;;;;;;10.18;3.50;;;6.90;77.20;;;;;;5042376;28;20432;-71
2022/12/27 09:03:53;;;;;;;8.68;2.80;;;6.90;77.20;;;;;;5042764;28;20204;-70
2022/12/27 09:06:22;;;;;;;12.95;3.40;;;6.90;77.30;;;;;;5042674;28;20201;-70
2022/12/27 09:08:53;;;;;;;9.35;3.20;;;6.90;77.30;;;;;;5043138;28;20200;-71
2022/12/27 09:11:24;;;;;;;9.10;3.53;;;6.90;77.20;;;;;;5042989;28;20971;-70
2022/12/27 09:13:52;;;;;;;9.27;3.45;;;6.90;77.30;;;;;;5042470;28;20216;-70
2022/12/27 09:16:23;;;;;;;8.20;3.42;;;6.90;77.30;;;;;;5042142;28;20215;-70
2022/12/27 09:18:54;;;;;;;10.57;3.30;;;6.90;77.40;;;;;;5042354;28;20216;-70
2022/12/27 09:21:24;;;;;;;9.93;3.80;;;6.90;77.30;;;;;;5041757;28;20220;-70
2022/12/27 09:23:52;;;;;;;10.55;2.58;;;6.90;77.30;;;;;;5042681;28;20213;-70
2022/12/27 09:26:21;;;;;;;9.85;3.35;;;6.90;77.40;;;;;;5042282;28;20212;-70
2022/12/27 09:28:50;;;;;;;7.90;3.28;;;6.90;77.50;;;;;;5040673;28;20201;-70
2022/12/27 09:31:20;;;;;;;9.70;3.30;;;7.00;77.50;;;;;;5042120;28;20235;-70
2022/12/27 09:33:50;;;;;;;10.25;2.65;;;7.00;77.60;;;;;;5042900;28;20209;-70
2022/12/27 09:36:19;;;;;;;9.10;3.38;;;7.00;77.60;;;;;;5042376;28;20224;-70
2022/12/27 09:38:48;;;;;;;6.78;3.00;;;7.10;77.70;;;;;;5040761;28;20225;-70
2022/12/27 09:41:22;;;;;;;9.90;3.00;;;7.10;77.70;;;;;;5042390;28;20228;-70
2022/12/27 09:44:13;;;;;;;15.75;4.03;;;7.10;77.70;;;;;;5042181;28;20754;-70
2022/12/27 09:46:45;;;;;;;7.80;3.05;;;7.10;77.70;;;;;;5040667;28;20204;-70
2022/12/27 09:49:20;;;;;;;9.05;2.70;;;7.10;77.70;;;;;;5046586;28;20283;-69
2022/12/27 09:51:52;;;;;;;11.95;3.75;;;7.10;77.70;;;;;;5045651;28;20723;-70
2022/12/27 09:54:26;;;;;;;7.55;2.85;;;7.10;77.70;;;;;;5046685;28;20666;-71
2022/12/27 09:56:54;;;;;;;9.18;3.20;;;7.20;77.80;;;;;;5045910;28;20215;-69
2022/12/27 09:59:46;;;;;;;7.80;3.33;;;7.20;77.80;;;;;;5045631;28;20304;-69
2022/12/27 10:02:20;;;;;;;6.45;3.10;;;7.20;77.80;;;;;;5045824;28;20225;-70
2022/12/27 10:04:51;;;;;;;11.73;2.90;;;7.20;77.90;;;;;;5045187;28;20204;-71
2022/12/27 10:07:47;;;;;;;6.47;3.53;;;7.30;77.90;;;;;;5046176;28;20295;-70
2022/12/27 10:10:22;;;;;;;9.27;2.58;;;7.30;77.90;;;;;;5046226;28;20208;-71
2022/12/27 10:13:06;;;;;;;11.40;3.25;;;7.40;77.80;;;;;;5044543;28;20713;-70
2022/12/27 10:15:47;;;;;;;10.07;2.85;;;7.40;77.80;;;;;;5045618;28;20698;-70
2022/12/27 10:18:25;;;;;;;5.38;2.75;;;7.40;77.80;;;;;;5045515;28;20303;-70
2022/12/27 10:21:02;;;;;;;12.27;2.60;;;7.40;77.80;;;;;;5060977;28;20415;-71
2022/12/27 10:23:32;;;;;;;6.57;2.78;;;7.50;77.80;;;;;;5044437;28;20204;-70
2022/12/27 10:26:05;;;;;;;6.75;2.42;;;7.50;77.80;;;;;;5045975;28;20223;-70
2022/12/27 10:28:38;;;;;;;9.38;2.75;;;7.50;77.70;;;;;;5044925;28;20262;-70
2022/12/27 10:31:11;;;;;;;9.13;2.88;;;7.50;77.80;;;;;;5045311;28;20221;-70
2022/12/27 10:33:40;;;;;;;7.83;2.67;;;7.60;77.90;;;;;;5068007;28;20858;-70
2022/12/27 10:36:14;;;;;;;9.95;2.97;;;7.60;77.90;;;;;;5044774;28;20478;-71
2022/12/27 10:38:42;;;;;;;15.40;3.47;;;7.60;77.80;;;;;;5044541;28;20273;-69
2022/12/27 10:41:23;;;;;;;10.27;2.67;;;7.60;77.80;;;;;;5044865;28;20674;-69
2022/12/27 10:43:53;;;;;;;7.53;2.65;;;7.70;77.90;;;;;;5045325;28;20193;-69
2022/12/27 10:46:23;;;;;;;10.13;3.03;;;7.70;77.90;;;;;;5046307;28;20204;-69
2022/12/27 10:49:01;;;;;;;8.80;2.90;;;7.70;77.80;;;;;;5044776;28;20207;-70
2022/12/27 10:51:51;;;;;;;7.97;2.95;;;7.70;77.90;;;;;;5044279;28;20319;-70
2022/12/27 10:54:23;;;;;;;7.88;2.60;;;7.70;77.90;;;;;;5044036;28;20201;-70
2022/12/27 10:56:52;;;;;;;5.75;2.72;;;7.80;77.90;;;;;;5044988;28;20274;-69
2022/12/27 10:59:22;;;;;;;4.47;2.50;;;7.80;77.90;;;;;;5043436;28;20228;-70
2022/12/27 11:02:17;;;;;;;9.40;2.95;;;7.80;77.90;;;;;;5043988;28;20232;-70
2022/12/27 11:04:59;;;;;;;11.98;2.75;;;7.80;78.00;;;;;;5043972;28;20682;-69
2022/12/27 11:07:34;;;;;;;7.85;2.22;;;7.90;78.00;;;;;;5042465;28;20216;-69
2022/12/27 11:10:08;;;;;;;7.50;1.92;;;7.90;77.90;;;;;;5045288;28;20207;-71
2022/12/27 11:12:36;;;;;;;7.25;3.20;;;7.90;77.90;;;;;;5046087;28;20227;-71
2022/12/27 11:15:14;;;;;;;5.03;2.28;;;7.90;77.80;;;;;;5044425;28;20197;-70
2022/12/27 11:17:45;;;;;;;7.95;2.78;;;7.90;77.90;;;;;;5043993;28;20290;-72
2022/12/27 11:20:21;;;;;;;5.97;2.13;;;7.90;77.80;;;;;;5045026;28;20221;-70
2022/12/27 11:22:53;;;;;;;5.75;2.35;;;7.90;77.70;;;;;;5043402;28;20281;-70
2022/12/27 11:25:22;;;;;;;6.78;2.35;;;7.90;77.70;;;;;;5043238;28;20216;-71
2022/12/27 11:27:52;;;;;;;5.83;2.40;;;7.90;77.70;;;;;;5040750;28;20255;-70
2022/12/27 11:30:23;;;;;;;9.15;2.35;;;7.90;77.60;;;;;;5042602;28;20443;-70
2022/12/27 11:32:51;;;;;;;8.50;2.63;;;7.90;77.60;;;;;;5043328;28;20285;-70
2022/12/27 11:35:22;;;;;;;6.70;2.17;;;7.90;77.60;;;;;;5043591;28;21041;-70
2022/12/27 11:37:52;;;;;;;12.35;2.08;;;7.90;77.60;;;;;;5043328;28;20455;-70
2022/12/27 11:40:26;;;;;;;8.60;2.45;;;7.90;77.60;;;;;;5043530;28;20232;-71
2022/12/27 11:43:01;;;;;;;7.45;2.58;;;7.90;77.70;;;;;;5042738;28;20286;-71
2022/12/27 11:45:35;;;;;;;7.38;2.08;;;7.90;77.60;;;;;;5043602;28;20207;-71
2022/12/27 11:48:10;;;;;;;6.30;2.13;;;7.90;77.60;;;;;;5042987;28;20196;-67
2022/12/27 11:50:54;;;;;;;8.65;2.38;;;8.00;77.70;;;;;;5043109;28;20450;-70
2022/12/27 11:53:56;;;;;;;6.05;2.00;;;8.00;77.70;;;;;;5042394;28;20204;-70
2022/12/27 11:56:27;;;;;;;7.87;2.20;;;8.00;77.60;;;;;;5043454;28;20211;-70
2022/12/27 11:59:09;;;;;;;6.47;2.33;;;8.00;77.60;;;;;;5042908;28;20447;-70
2022/12/27 12:02:01;;;;;;;7.18;1.95;;;8.00;77.60;;;;;;5041079;28;20243;-70
2022/12/27 12:05:00;;;;;;;6.20;2.47;;;8.00;77.60;;;;;;5041120;28;20878;-69
2022/12/27 12:07:46;;;;;;;12.40;2.90;;;8.00;77.60;;;;;;5042659;28;20214;-69
2022/12/27 12:10:30;;;;;;;8.15;2.53;;;8.00;77.60;;;;;;5042817;28;20212;-68
2022/12/27 12:13:33;;;;;;;12.27;2.63;;;8.00;77.60;;;;;;5040473;28;20228;-70
2022/12/27 12:16:23;;;;;;;14.20;2.03;;;8.00;77.50;;;;;;5042851;28;20207;-70
2022/12/27 12:19:12;;;;;;;6.68;1.73;;;8.10;77.50;;;;;;5041652;28;20211;-70
2022/12/27 12:21:55;;;;;;;6.05;2.40;;;8.10;77.60;;;;;;5042305;28;20967;-70
2022/12/27 12:24:41;;;;;;;16.92;3.20;;;8.10;77.50;;;;;;5042122;28;20238;-70
2022/12/27 12:27:26;;;;;;;9.10;2.03;;;8.10;77.60;;;;;;5042950;28;20201;-70
2022/12/27 12:30:31;;;;;;;9.30;2.20;;;8.10;77.70;;;;;;5041010;28;20197;-70
2022/12/27 12:33:12;;;;;;;6.72;2.30;;;8.20;77.70;;;;;;5041103;28;20251;-70
2022/12/27 12:35:55;;;;;;;6.40;2.00;;;8.20;77.70;;;;;;5038534;28;20200;-70
2022/12/27 12:38:27;;;;;;;6.78;2.05;;;8.30;77.60;;;;;;5043037;28;20454;-70
2022/12/27 12:41:40;;;;;;;7.05;2.10;;;8.30;77.60;;;;;;5041275;28;20291;-70
2022/12/27 12:44:34;;;;;;;7.87;2.10;;;8.30;77.40;;;;;;5042024;28;20205;-70
2022/12/27 12:47:26;;;;;;;7.40;2.25;;;8.30;77.40;;;;;;5043103;28;20461;-70
2022/12/27 12:50:06;;;;;;;7.18;2.10;;;8.30;77.30;;;;;;5042649;28;20209;-71
2022/12/27 12:53:01;;;;;;;8.00;2.28;;;8.30;77.40;;;;;;5041348;28;20872;-69
2022/12/27 12:55:39;;;;;;;6.23;1.90;;;8.30;77.40;;;;;;5041264;28;20212;-70
2022/12/27 12:58:16;;;;;;;7.93;2.17;;;8.30;77.50;;;;;;5042381;28;20524;-69
2022/12/27 13:01:04;;;;;;;6.77;2.20;;;8.30;77.40;;;;;;5042629;28;20890;-70
2022/12/27 13:03:54;;;;;;;9.32;2.20;;;8.40;77.20;;;;;;5044563;28;20973;-70
2022/12/27 13:06:41;;;;;;;6.38;1.85;;;8.40;77.20;;;;;;5041768;28;20201;-70
2022/12/27 13:09:19;;;;;;;5.85;1.90;;;8.40;77.20;;;;;;5042492;28;20603;-70
2022/12/27 13:11:55;;;;;;;9.15;1.65;;;8.50;77.30;;;;;;5041784;28;20235;-71
2022/12/27 13:14:40;;;;;;;7.18;2.30;;;8.50;77.20;;;;;;5042554;28;20265;-70
2022/12/27 13:17:16;;;;;;;6.20;2.13;;;8.50;77.20;;;;;;5042755;28;20216;-70
2022/12/27 13:20:01;;;;;;;9.15;1.85;;;8.50;77.00;;;;;;5042483;28;20662;-70
2022/12/27 13:22:44;;;;;;;6.78;2.42;;;8.50;76.90;;;;;;5041899;28;20883;-71
2022/12/27 13:25:24;;;;;;;7.60;1.70;;;8.50;76.90;;;;;;5042307;28;20208;-71
2022/12/27 13:28:00;;;;;;;5.57;1.70;;;8.50;76.90;;;;;;5041606;28;20857;-71
2022/12/27 13:30:33;;;;;;;4.40;1.37;;;8.40;76.90;;;;;;5042353;28;20450;-71
2022/12/27 13:33:15;;;;;;;10.07;1.90;;;8.50;76.80;;;;;;5041487;28;21109;-70
2022/12/27 13:35:54;;;;;;;5.63;1.67;;;8.40;76.80;;;;;;5040414;28;20200;-70
2022/12/27 13:38:34;;;;;;;10.80;2.15;;;8.40;76.80;;;;;;5041690;28;20512;-69
2022/12/27 13:41:31;;;;;;;8.55;1.98;;;8.40;76.90;;;;;;5041924;28;20764;-70
2022/12/27 13:44:15;;;;;;;7.38;2.10;;;8.50;76.80;;;;;;5040185;28;20234;-70
2022/12/27 13:46:58;;;;;;;5.77;1.80;;;8.50;76.80;;;;;;5040587;28;20204;-71
2022/12/27 13:49:41;;;;;;;8.27;1.80;;;8.50;76.70;;;;;;5041663;28;20447;-70
2022/12/27 13:52:30;;;;;;;4.72;1.60;;;8.50;76.70;;;;;;5040277;28;20228;-70
2022/12/27 13:55:20;;;;;;;10.27;2.03;;;8.50;76.60;;;;;;5041854;28;20944;-70
2022/12/27 13:58:28;;;;;;;5.93;1.90;;;8.40;76.60;;;;;;5035731;28;20455;-70
2022/12/27 14:01:03;;;;;;;6.97;2.13;;;8.40;76.60;;;;;;5003662;28;21113;-70
2022/12/27 14:03:54;;;;;;;9.27;2.40;;;8.40;76.70;;;;;;5003033;28;20659;-70
2022/12/27 14:06:49;;;;;;;8.05;1.95;;;8.40;76.70;;;;;;5033294;28;20736;-70
2022/12/27 14:09:37;;;;;;;9.85;2.00;;;8.40;76.60;;;;;;5040782;28;20787;-70
2022/12/27 14:12:35;;;;;;;7.78;1.50;;;8.50;76.60;;;;;;5041249;28;20220;-70
2022/12/27 14:15:06;;;;;;;7.20;1.77;;;8.50;76.50;;;;;;5042013;28;20241;-70
2022/12/27 14:17:42;;;;;;;8.60;2.03;;;8.50;76.60;;;;;;5041827;28;20255;-70
2022/12/27 14:20:25;;;;;;;10.23;2.28;;;8.50;76.60;;;;;;5039208;28;20828;-70
2022/12/27 14:23:18;;;;;;;7.72;1.60;;;8.50;76.60;;;;;;5039343;28;20225;-71
2022/12/27 14:26:38;;;;;;;6.80;2.00;;;8.50;76.60;;;;;;5039768;28;20239;-70
2022/12/27 14:29:42;;;;;;;7.17;1.87;;;8.60;76.60;;;;;;5040184;28;20952;-70
2022/12/27 14:32:46;;;;;;;7.07;2.25;;;8.50;76.50;;;;;;5040256;28;20494;-70
2022/12/27 14:35:58;;;;;;;6.77;1.60;;;8.50;76.40;;;;;;5044217;28;20235;-70
2022/12/27 14:39:10;;;;;;;6.37;1.50;;;8.50;76.30;;;;;;5045180;28;20451;-70
2022/12/27 14:42:14;;;;;;;8.68;1.80;;;8.50;76.40;;;;;;5040352;28;21238;-70
2022/12/27 14:45:15;;;;;;;9.07;2.00;;;8.40;76.40;;;;;;5027927;28;20995;-70
2022/12/27 14:48:07;;;;;;;10.63;2.23;;;8.40;76.30;;;;;;5041534;28;20985;-70
2022/12/27 14:51:20;;;;;;;7.93;1.80;;;8.40;76.30;;;;;;5043346;28;21293;-71
2022/12/27 14:54:44;;;;;;;5.75;1.58;;;8.40;76.00;;;;;;5042701;28;20310;-70
2022/12/27 14:57:21;;;;;;;5.40;1.65;;;8.30;76.10;;;;;;5043000;28;20220;-70
2022/12/27 14:59:56;;;;;;;12.98;2.05;;;8.30;76.30;;;;;;5042767;28;20200;-70
2022/12/27 15:02:42;;;;;;;7.53;1.60;;;8.30;76.10;;;;;;5044776;28;20231;-71
2022/12/27 15:05:30;;;;;;;5.55;1.48;;;8.30;76.10;;;;;;5043501;28;20287;-71
2022/12/27 15:08:29;;;;;;;5.63;2.00;;;8.30;76.10;;;;;;5043382;28;20211;-70
2022/12/27 15:11:17;;;;;;;6.30;1.47;;;8.30;76.30;;;;;;5042381;28;20278;-71
2022/12/27 15:14:04;;;;;;;6.82;2.35;;;8.30;76.30;;;;;;5044010;28;20447;-71
2022/12/27 15:16:46;;;;;;;6.13;2.00;;;8.30;76.10;;;;;;5043128;28;20221;-70
2022/12/27 15:19:32;;;;;;;7.68;1.90;;;8.40;76.10;;;;;;5043403;28;20211;-71